createdAt,value
2022-11-16T00:00:06.509Z,16.88
2022-11-16T00:02:35.477Z,19.00
2022-11-16T00:05:04.135Z,15.75
2022-11-16T00:07:32.536Z,16.83
2022-11-16T00:10:02.302Z,19.45
2022-11-16T00:12:30.561Z,18.45
2022-11-16T00:14:58.819Z,17.38
2022-11-16T00:17:27.181Z,19.02
2022-11-16T00:19:55.373Z,17.75
2022-11-16T00:22:23.790Z,16.30
2022-11-16T00:24:52.007Z,16.70
2022-11-16T00:27:21.639Z,17.05
2022-11-16T00:29:49.950Z,17.35
2022-11-16T00:32:18.163Z,16.52
2022-11-16T00:34:46.599Z,17.15
2022-11-16T00:37:14.792Z,17.00
2022-11-16T00:39:43.129Z,15.43
2022-11-16T00:42:14.119Z,19.40
2022-11-16T00:44:43.813Z,16.02
2022-11-16T00:47:12.114Z,17.38
2022-11-16T00:49:40.875Z,16.50
2022-11-16T00:52:09.188Z,16.88
2022-11-16T00:54:37.493Z,16.40
2022-11-16T00:57:06.189Z,16.98
2022-11-16T00:59:34.817Z,17.95
2022-11-16T01:02:05.602Z,18.85
2022-11-16T01:04:33.928Z,17.75
2022-11-16T01:07:02.344Z,17.63
2022-11-16T01:09:30.695Z,15.73
2022-11-16T01:12:10.709Z,14.48
2022-11-16T01:14:40.535Z,15.55
2022-11-16T01:17:10.438Z,16.13
2022-11-16T01:19:39.401Z,15.65
2022-11-16T01:22:08.778Z,16.33
2022-11-16T01:24:37.025Z,16.00
2022-11-16T01:27:05.557Z,14.00
2022-11-16T01:29:36.696Z,17.90
2022-11-16T01:32:05.322Z,15.80
2022-11-16T01:34:36.141Z,17.13
2022-11-16T01:37:11.233Z,16.00
2022-11-16T01:39:42.231Z,16.15
2022-11-16T01:42:18.007Z,14.15
2022-11-16T01:45:19.943Z,14.10
2022-11-16T01:47:49.730Z,13.52
2022-11-16T01:50:23.622Z,14.73
2022-11-16T01:52:56.111Z,16.70
2022-11-16T01:55:28.192Z,15.40
2022-11-16T01:58:21.960Z,16.08
2022-11-16T02:00:55.797Z,14.20
2022-11-16T02:03:32.935Z,15.13
2022-11-16T02:06:16.670Z,16.00
2022-11-16T02:09:19.473Z,17.13
2022-11-16T02:12:10.069Z,17.20
2022-11-16T02:14:57.654Z,14.65
2022-11-16T02:17:37.607Z,14.95
2022-11-16T02:20:39.045Z,16.58
2022-11-16T02:23:43.690Z,14.80
2022-11-16T02:26:33.276Z,16.73
2022-11-16T02:29:17.423Z,15.15
2022-11-16T02:31:52.756Z,15.32
2022-11-16T02:34:24.122Z,17.08
2022-11-16T02:36:56.062Z,14.85
2022-11-16T02:39:27.379Z,16.35
2022-11-16T02:41:57.733Z,15.43
2022-11-16T02:44:33.835Z,15.18
2022-11-16T02:47:06.648Z,17.05
2022-11-16T02:49:37.774Z,15.48
2022-11-16T02:52:06.670Z,15.57
2022-11-16T02:54:34.902Z,16.88
2022-11-16T02:57:30.300Z,15.70
2022-11-16T03:00:02.298Z,14.90
2022-11-16T03:02:44.982Z,15.27
2022-11-16T03:05:18.396Z,15.88
2022-11-16T03:08:03.332Z,15.93
2022-11-16T03:10:51.139Z,18.33
2022-11-16T03:13:24.781Z,17.60
2022-11-16T03:15:57.272Z,15.70
2022-11-16T03:18:29.773Z,16.60
2022-11-16T03:21:10.517Z,14.43
2022-11-16T03:23:39.207Z,15.13
2022-11-16T03:26:11.885Z,17.52
2022-11-16T03:28:47.987Z,16.52
2022-11-16T03:31:22.886Z,15.77
2022-11-16T03:33:56.180Z,14.77
2022-11-16T03:36:28.928Z,17.10
2022-11-16T03:39:01.817Z,16.08
2022-11-16T03:41:32.849Z,17.88
2022-11-16T03:44:02.150Z,17.00
2022-11-16T03:46:31.946Z,16.00
2022-11-16T03:49:02.191Z,16.55
2022-11-16T03:51:35.381Z,14.82
2022-11-16T03:54:04.224Z,17.83
2022-11-16T03:56:33.766Z,19.60
2022-11-16T03:59:02.453Z,18.08
2022-11-16T04:01:33.517Z,17.38
2022-11-16T04:04:01.990Z,18.40
2022-11-16T04:06:48.072Z,16.55
2022-11-16T04:09:34.051Z,16.25
2022-11-16T04:12:19.988Z,17.80
2022-11-16T04:15:06.435Z,19.10
2022-11-16T04:17:55.316Z,21.30
2022-11-16T04:20:40.696Z,16.42
2022-11-16T04:23:30.266Z,20.25
2022-11-16T04:25:59.051Z,16.70
2022-11-16T04:28:31.749Z,20.38
2022-11-16T04:31:22.497Z,20.63
2022-11-16T04:34:16.578Z,15.57
2022-11-16T04:37:06.605Z,18.58
2022-11-16T04:39:34.823Z,18.00
2022-11-16T04:42:19.917Z,17.08
2022-11-16T04:45:08.414Z,20.17
2022-11-16T04:47:50.001Z,21.08
2022-11-16T04:50:21.775Z,17.00
2022-11-16T04:52:51.419Z,20.38
2022-11-16T04:55:19.628Z,17.60
2022-11-16T04:57:49.578Z,15.70
2022-11-16T05:00:19.235Z,19.42
2022-11-16T05:02:47.604Z,18.17
2022-11-16T05:05:16.042Z,19.23
2022-11-16T05:07:47.159Z,17.23
2022-11-16T05:10:21.897Z,23.42
2022-11-16T05:12:51.400Z,21.10
2022-11-16T05:15:19.882Z,17.70
2022-11-16T05:17:50.048Z,19.55
2022-11-16T05:20:39.491Z,20.13
2022-11-16T05:23:30.721Z,21.27
2022-11-16T05:26:03.429Z,20.85
2022-11-16T05:28:31.678Z,22.48
2022-11-16T05:30:59.892Z,21.92
2022-11-16T05:33:29.692Z,21.52
2022-11-16T05:35:57.848Z,21.08
2022-11-16T05:38:27.288Z,23.58
2022-11-16T05:40:59.093Z,22.15
2022-11-16T05:43:27.358Z,20.52
2022-11-16T05:46:09.697Z,23.52
2022-11-16T05:48:38.546Z,21.17
2022-11-16T05:51:07.678Z,23.52
2022-11-16T05:53:37.614Z,24.08
2022-11-16T05:56:07.302Z,24.27
2022-11-16T05:58:38.897Z,24.27
2022-11-16T06:01:07.565Z,23.25
2022-11-16T06:03:36.689Z,23.40
2022-11-16T06:06:06.477Z,25.77
2022-11-16T06:08:34.756Z,24.63
2022-11-16T06:11:09.320Z,24.50
2022-11-16T06:13:38.582Z,22.38
2022-11-16T06:16:08.461Z,23.95
2022-11-16T06:18:39.529Z,25.40
2022-11-16T06:21:09.062Z,24.38
2022-11-16T06:23:37.229Z,24.55
2022-11-16T06:26:07.432Z,24.60
2022-11-16T06:28:37.225Z,21.52
2022-11-16T06:31:06.165Z,23.35
2022-11-16T06:33:38.577Z,23.38
2022-11-16T06:36:11.850Z,23.85
2022-11-16T06:38:39.901Z,23.40
2022-11-16T06:41:10.725Z,21.92
2022-11-16T06:43:44.267Z,22.42
2022-11-16T06:46:12.588Z,25.00
2022-11-16T06:48:41.478Z,22.20
2022-11-16T06:51:13.525Z,22.20
2022-11-16T06:53:41.546Z,21.60
2022-11-16T06:56:14.753Z,24.60
2022-11-16T06:58:52.884Z,23.00
2022-11-16T07:01:21.573Z,24.40
2022-11-16T07:03:50.675Z,23.42
2022-11-16T07:06:18.727Z,24.35
2022-11-16T07:08:47.525Z,26.30
2022-11-16T07:11:21.290Z,21.95
2022-11-16T07:13:49.558Z,24.85
2022-11-16T07:16:17.843Z,24.92
2022-11-16T07:18:52.824Z,21.55
2022-11-16T07:21:21.065Z,25.58
2022-11-16T07:23:49.271Z,25.52
2022-11-16T07:26:22.261Z,22.02
2022-11-16T07:28:59.535Z,22.40
2022-11-16T07:31:28.655Z,22.42
2022-11-16T07:34:15.047Z,25.35
2022-11-16T07:36:49.449Z,23.00
2022-11-16T07:39:18.686Z,22.13
2022-11-16T07:41:50.406Z,22.77
2022-11-16T07:44:27.668Z,21.52
2022-11-16T07:47:07.153Z,26.42
2022-11-16T07:49:37.104Z,27.50
2022-11-16T07:52:12.625Z,26.30
2022-11-16T07:55:03.690Z,23.45
2022-11-16T07:57:33.408Z,23.88
2022-11-16T08:00:09.914Z,22.70
2022-11-16T08:02:49.094Z,23.65
2022-11-16T08:05:20.736Z,22.80
2022-11-16T08:07:51.077Z,22.70
2022-11-16T08:10:23.288Z,24.67
2022-11-16T08:12:53.399Z,25.02
2022-11-16T08:15:23.517Z,25.20
2022-11-16T08:17:52.735Z,25.02
2022-11-16T08:20:20.952Z,24.65
2022-11-16T08:22:50.732Z,26.27
2022-11-16T08:25:19.767Z,25.10
2022-11-16T08:27:48.537Z,27.02
2022-11-16T08:30:20.577Z,25.45
2022-11-16T08:32:49.522Z,23.75
2022-11-16T08:35:18.010Z,21.55
2022-11-16T08:37:46.673Z,25.58
2022-11-16T08:40:15.776Z,23.23
2022-11-16T08:42:44.664Z,24.83
2022-11-16T08:45:13.778Z,24.95
2022-11-16T08:47:44.273Z,25.98
2022-11-16T08:50:12.325Z,23.95
2022-11-16T08:52:40.402Z,26.48
2022-11-16T08:55:10.229Z,23.02
2022-11-16T08:57:38.998Z,24.48
2022-11-16T09:00:12.413Z,22.17
2022-11-16T09:02:40.586Z,22.83
2022-11-16T09:05:12.163Z,23.02
2022-11-16T09:07:40.955Z,24.20
2022-11-16T09:10:10.233Z,25.60
2022-11-16T09:12:38.428Z,23.75
2022-11-16T09:15:07.532Z,24.20
2022-11-16T09:17:35.527Z,24.73
2022-11-16T09:20:03.886Z,26.00
2022-11-16T09:22:33.416Z,22.80
2022-11-16T09:25:01.591Z,23.92
2022-11-16T09:27:30.010Z,27.30
2022-11-16T09:29:58.032Z,23.48
2022-11-16T09:32:26.070Z,21.48
2022-11-16T09:34:54.309Z,21.05
2022-11-16T09:37:22.444Z,20.17
2022-11-16T09:39:52.332Z,22.67
2022-11-16T09:42:34.260Z,24.08
2022-11-16T09:45:06.412Z,21.83
2022-11-16T09:47:44.564Z,23.27
2022-11-16T09:50:23.878Z,23.08
2022-11-16T09:52:56.367Z,21.35
2022-11-16T09:55:33.713Z,22.02
2022-11-16T09:58:08.734Z,21.60
2022-11-16T10:00:38.543Z,22.08
2022-11-16T10:03:11.413Z,21.27
2022-11-16T10:05:45.576Z,23.55
2022-11-16T10:08:19.280Z,23.95
2022-11-16T10:10:57.651Z,21.10
2022-11-16T10:13:39.881Z,21.90
2022-11-16T10:16:15.658Z,22.40
2022-11-16T10:18:53.740Z,21.27
2022-11-16T10:21:37.395Z,21.42
2022-11-16T10:24:46.022Z,21.33
2022-11-16T10:27:47.430Z,23.27
2022-11-16T10:30:18.110Z,20.05
2022-11-16T10:32:51.145Z,23.48
2022-11-16T10:35:24.099Z,20.05
2022-11-16T10:37:53.253Z,19.30
2022-11-16T10:40:24.955Z,18.27
2022-11-16T10:43:02.453Z,21.67
2022-11-16T10:45:36.421Z,18.60
2022-11-16T10:48:13.567Z,18.08
2022-11-16T10:50:45.083Z,19.50
2022-11-16T10:53:15.605Z,20.13
2022-11-16T10:55:43.827Z,20.60
2022-11-16T10:58:13.237Z,23.77
2022-11-16T11:00:52.003Z,22.08
2022-11-16T11:03:32.392Z,22.50
2022-11-16T11:06:01.227Z,20.50
2022-11-16T11:08:31.545Z,22.92
2022-11-16T11:11:22.669Z,20.70
2022-11-16T11:14:09.894Z,21.70
2022-11-16T11:16:38.051Z,23.75
2022-11-16T11:19:20.201Z,22.00
2022-11-16T11:21:48.692Z,24.10
2022-11-16T11:24:43.308Z,23.45
2022-11-16T11:27:06.971Z,21.98
2022-11-16T11:29:38.748Z,24.08
2022-11-16T11:32:09.087Z,22.45
2022-11-16T11:34:42.742Z,20.63
2022-11-16T11:37:16.628Z,23.92
2022-11-16T11:39:44.947Z,23.23
2022-11-16T11:42:30.889Z,22.13
2022-11-16T11:45:06.577Z,19.83
2022-11-16T11:47:59.650Z,23.23
2022-11-16T11:50:40.001Z,23.77
2022-11-16T11:53:12.763Z,22.02
2022-11-16T11:55:41.088Z,22.52
2022-11-16T11:58:17.587Z,21.05
2022-11-16T12:00:58.139Z,22.20
2022-11-16T12:03:56.282Z,21.23
2022-11-16T12:06:30.873Z,24.52
2022-11-16T12:09:09.697Z,21.95
2022-11-16T12:11:50.484Z,22.65
2022-11-16T12:14:30.005Z,21.75
2022-11-16T12:17:07.296Z,22.00
2022-11-16T12:20:05.928Z,24.83
2022-11-16T12:22:59.719Z,20.33
2022-11-16T12:25:38.275Z,23.60
2022-11-16T12:28:18.073Z,23.23
2022-11-16T12:30:54.381Z,24.73
2022-11-16T12:33:35.241Z,25.60
2022-11-16T12:36:09.572Z,23.50
2022-11-16T12:38:50.760Z,27.05
2022-11-16T12:41:40.021Z,23.35
2022-11-16T12:44:11.799Z,25.45
2022-11-16T12:46:51.281Z,21.02
2022-11-16T12:49:48.095Z,26.85
2022-11-16T12:52:27.749Z,25.88
2022-11-16T12:55:27.339Z,22.70
2022-11-16T12:58:08.598Z,23.85
2022-11-16T13:00:51.870Z,23.27
2022-11-16T13:03:24.736Z,25.00
2022-11-16T13:05:59.670Z,23.63
2022-11-16T13:08:43.073Z,23.75
2022-11-16T13:11:17.089Z,25.30
2022-11-16T13:13:52.772Z,22.35
2022-11-16T13:16:22.497Z,23.90
2022-11-16T13:18:51.384Z,25.17
2022-11-16T13:21:38.849Z,25.33
2022-11-16T13:24:28.289Z,32.35
2022-11-16T13:27:06.060Z,23.98
2022-11-16T13:29:39.344Z,26.63
2022-11-16T13:32:14.705Z,26.45
2022-11-16T13:34:43.036Z,27.48
2022-11-16T13:37:43.524Z,29.92
2022-11-16T13:40:22.352Z,33.13
2022-11-16T13:43:08.188Z,32.88
2022-11-16T13:45:39.924Z,27.80
2022-11-16T13:48:19.289Z,33.00
2022-11-16T13:50:54.130Z,26.30
2022-11-16T13:56:28.317Z,30.48
2022-11-16T13:58:58.527Z,26.38
2022-11-16T14:01:27.055Z,29.40
2022-11-16T14:04:33.366Z,26.23
2022-11-16T14:07:01.508Z,33.78
2022-11-16T14:09:48.897Z,28.60
2022-11-16T14:12:53.838Z,29.50
2022-11-16T14:15:23.684Z,26.45
2022-11-16T14:18:00.634Z,29.90
2022-11-16T14:20:49.640Z,29.50
2022-11-16T14:23:30.079Z,33.40
2022-11-16T14:26:14.398Z,30.02
2022-11-16T14:29:03.940Z,30.58
2022-11-16T14:31:46.496Z,34.03
2022-11-16T14:34:18.772Z,32.17
2022-11-16T14:36:47.808Z,33.53
2022-11-16T14:39:38.458Z,34.63
2022-11-16T14:42:17.399Z,32.08
2022-11-16T14:44:46.032Z,34.35
2022-11-16T14:47:24.619Z,34.30
2022-11-16T14:49:53.475Z,33.42
2022-11-16T14:52:31.077Z,37.17
2022-11-16T14:55:02.221Z,41.03
2022-11-16T14:57:32.025Z,35.78
2022-11-16T15:00:13.077Z,34.10
2022-11-16T15:02:42.091Z,36.92
2022-11-16T15:05:17.855Z,41.03
2022-11-16T15:07:49.839Z,41.30
2022-11-16T15:10:20.526Z,42.58
2022-11-16T15:12:52.633Z,44.92
2022-11-16T15:15:24.259Z,49.65
2022-11-16T15:18:07.425Z,44.00
2022-11-16T15:20:37.463Z,46.28
2022-11-16T15:23:13.692Z,46.90
2022-11-16T15:25:45.301Z,44.13
2022-11-16T15:28:18.309Z,42.78
2022-11-16T15:30:47.889Z,46.35
2022-11-16T15:33:19.977Z,48.20
2022-11-16T15:35:48.216Z,47.38
2022-11-16T15:38:19.300Z,55.83
2022-11-16T15:40:50.498Z,51.28
2022-11-16T15:43:21.439Z,47.63
2022-11-16T15:45:50.360Z,45.10
2022-11-16T15:48:21.617Z,49.15
2022-11-16T15:51:06.321Z,44.25
2022-11-16T15:53:39.874Z,58.50
2022-11-16T15:56:11.158Z,62.00
2022-11-16T15:58:42.410Z,51.65
2022-11-16T16:01:11.914Z,62.13
2022-11-16T16:03:40.170Z,55.15
2022-11-16T16:06:14.025Z,53.10
2022-11-16T16:08:42.090Z,46.95
2022-11-16T16:11:12.813Z,49.35
2022-11-16T16:13:44.175Z,50.63
2022-11-16T16:16:26.120Z,51.42
2022-11-16T16:18:56.198Z,67.90
2022-11-16T16:21:24.403Z,59.05
2022-11-16T16:23:53.996Z,51.08
2022-11-16T16:26:22.937Z,56.20
2022-11-16T16:28:52.772Z,50.45
2022-11-16T16:31:21.158Z,55.15
2022-11-16T16:33:49.749Z,48.15
2022-11-16T16:36:17.837Z,43.30
2022-11-16T16:38:45.846Z,45.75
2022-11-16T16:41:23.988Z,48.63
2022-11-16T16:43:54.329Z,46.38
2022-11-16T16:46:22.763Z,43.60
2022-11-16T16:48:50.759Z,46.13
2022-11-16T16:51:18.818Z,48.65
2022-11-16T16:53:46.817Z,51.72
2022-11-16T16:56:16.704Z,55.03
2022-11-16T16:58:44.741Z,51.33
2022-11-16T17:01:14.433Z,48.75
2022-11-16T17:03:42.584Z,52.08
2022-11-16T17:06:10.593Z,50.05
2022-11-16T17:08:39.393Z,43.50
2022-11-16T17:11:07.501Z,54.33
2022-11-16T17:13:35.848Z,48.40
2022-11-16T17:16:06.080Z,55.17
2022-11-16T17:18:35.493Z,54.63
2022-11-16T17:21:07.675Z,50.00
2022-11-16T17:23:36.907Z,46.65
2022-11-16T17:26:05.936Z,47.67
2022-11-16T17:28:34.458Z,50.75
2022-11-16T17:31:03.320Z,43.25
2022-11-16T17:33:35.700Z,51.47
2022-11-16T17:36:04.837Z,50.45
2022-11-16T17:38:32.999Z,53.25
2022-11-16T17:41:05.996Z,52.63
2022-11-16T17:43:34.728Z,52.35
2022-11-16T17:46:05.192Z,50.25
2022-11-16T17:48:33.227Z,47.70
2022-11-16T17:51:02.876Z,49.72
2022-11-16T17:53:32.910Z,41.60
2022-11-16T17:56:01.315Z,48.30
2022-11-16T17:58:30.236Z,45.85
2022-11-16T18:01:00.555Z,48.78
2022-11-16T18:03:29.417Z,47.20
2022-11-16T18:06:04.956Z,47.75
2022-11-16T18:08:33.638Z,47.63
2022-11-16T18:11:05.684Z,45.78
2022-11-16T18:13:34.356Z,43.03
2022-11-16T18:16:06.881Z,40.22
2022-11-16T18:18:35.136Z,43.22
2022-11-16T18:21:05.055Z,48.70
2022-11-16T18:23:34.412Z,46.47
2022-11-16T18:26:03.614Z,41.67
2022-11-16T18:28:31.711Z,41.38
2022-11-16T18:31:04.992Z,41.45
2022-11-16T18:33:33.643Z,40.15
2022-11-16T18:36:01.942Z,44.58
2022-11-16T18:38:31.497Z,39.17
2022-11-16T18:41:07.554Z,43.42
2022-11-16T18:43:36.412Z,39.92
2022-11-16T18:46:04.785Z,40.80
2022-11-16T18:48:33.291Z,44.08
2022-11-16T18:51:01.541Z,42.22
2022-11-16T18:53:32.410Z,48.15
2022-11-16T18:56:00.951Z,38.40
2022-11-16T18:58:49.885Z,44.90
2022-11-16T19:01:19.236Z,47.47
2022-11-16T19:03:47.421Z,43.75
2022-11-16T19:06:17.754Z,44.22
2022-11-16T19:08:54.973Z,43.75
2022-11-16T19:11:24.460Z,45.03
2022-11-16T19:13:54.630Z,43.78
2022-11-16T19:16:23.892Z,51.05
2022-11-16T19:18:51.949Z,46.35
2022-11-16T19:21:21.824Z,49.17
2022-11-16T19:23:53.603Z,46.83
2022-11-16T19:26:23.492Z,46.13
2022-11-16T19:28:52.395Z,53.72
2022-11-16T19:31:23.335Z,48.63
2022-11-16T19:33:55.201Z,46.88
2022-11-16T19:36:24.066Z,47.85
2022-11-16T19:38:53.888Z,46.75
2022-11-16T19:41:22.561Z,48.90
2022-11-16T19:43:52.594Z,47.85
2022-11-16T19:46:21.603Z,44.60
2022-11-16T19:48:50.382Z,51.50
2022-11-16T19:51:20.693Z,49.55
2022-11-16T19:53:48.741Z,52.22
2022-11-16T19:56:20.504Z,44.92
2022-11-16T19:58:48.808Z,52.10
2022-11-16T20:01:18.994Z,50.28
2022-11-16T20:03:47.523Z,47.50
2022-11-16T20:06:16.658Z,53.35
2022-11-16T20:08:48.708Z,45.35
2022-11-16T20:11:20.655Z,52.25
2022-11-16T20:13:49.204Z,47.60
2022-11-16T20:16:18.308Z,46.85
2022-11-16T20:18:47.509Z,48.17
2022-11-16T20:21:20.437Z,51.78
2022-11-16T20:23:48.640Z,51.08
2022-11-16T20:26:18.106Z,49.28
2022-11-16T20:28:46.436Z,48.72
2022-11-16T20:31:16.755Z,49.42
2022-11-16T20:33:51.548Z,48.65
2022-11-16T20:36:19.893Z,51.88
2022-11-16T20:38:47.950Z,45.88
2022-11-16T20:41:19.191Z,47.50
2022-11-16T20:43:48.258Z,47.38
2022-11-16T20:46:17.930Z,41.78
2022-11-16T20:48:46.641Z,44.50
2022-11-16T20:51:16.838Z,48.70
2022-11-16T20:53:45.421Z,45.10
2022-11-16T20:56:13.937Z,42.40
2022-11-16T20:58:43.413Z,41.60
2022-11-16T21:01:13.937Z,43.40
2022-11-16T21:03:44.656Z,50.25
2022-11-16T21:06:13.320Z,43.13
2022-11-16T21:08:42.090Z,45.47
2022-11-16T21:11:13.153Z,43.40
2022-11-16T21:13:58.828Z,40.95
2022-11-16T21:16:28.308Z,35.28
2022-11-16T21:18:56.350Z,36.03
2022-11-16T21:21:25.397Z,36.03
2022-11-16T21:23:54.140Z,39.00
2022-11-16T21:26:23.569Z,33.30
2022-11-16T21:28:51.860Z,33.70
2022-11-16T21:31:21.997Z,34.60
2022-11-16T21:33:51.430Z,32.85
2022-11-16T21:36:21.295Z,35.70
2022-11-16T21:38:49.536Z,37.10
2022-11-16T21:41:18.990Z,34.40
2022-11-16T21:43:47.357Z,34.60
2022-11-16T21:46:17.298Z,35.83
2022-11-16T21:48:47.038Z,30.48
2022-11-16T21:51:18.976Z,29.52
2022-11-16T21:53:47.649Z,32.08
2022-11-16T21:56:16.929Z,29.55
2022-11-16T21:58:45.940Z,30.30
2022-11-16T22:01:16.020Z,30.10
2022-11-16T22:03:44.702Z,25.85
2022-11-16T22:06:32.785Z,25.20
2022-11-16T22:09:02.276Z,21.73
2022-11-16T22:11:30.399Z,20.70
2022-11-16T22:13:58.393Z,24.42
2022-11-16T22:16:26.407Z,25.27
2022-11-16T22:18:54.397Z,24.52
2022-11-16T22:21:22.505Z,23.27
2022-11-16T22:23:50.512Z,22.92
2022-11-16T22:26:20.204Z,23.45
2022-11-16T22:28:48.224Z,23.17
2022-11-16T22:31:16.479Z,23.77
2022-11-16T22:33:44.485Z,23.58
2022-11-16T22:36:13.391Z,27.20
2022-11-16T22:38:41.420Z,22.77
2022-11-16T22:41:10.275Z,20.13
2022-11-16T22:43:40.085Z,20.33
2022-11-16T22:46:08.378Z,21.83
2022-11-16T22:48:38.145Z,25.63
2022-11-16T22:51:07.911Z,24.42
2022-11-16T22:53:36.652Z,20.45
2022-11-16T22:56:06.986Z,22.27
2022-11-16T22:58:35.177Z,23.42
2022-11-16T23:01:04.948Z,21.20
2022-11-16T23:03:33.313Z,20.00
2022-11-16T23:06:01.725Z,19.80
2022-11-16T23:08:29.861Z,17.67
2022-11-16T23:11:19.797Z,19.35
2022-11-16T23:14:06.001Z,20.30
2022-11-16T23:16:35.870Z,18.48
2022-11-16T23:19:03.937Z,18.77
2022-11-16T23:21:49.450Z,18.70
2022-11-16T23:24:34.869Z,19.58
2022-11-16T23:27:22.372Z,18.70
2022-11-16T23:29:50.868Z,18.27
2022-11-16T23:32:20.300Z,19.05
2022-11-16T23:34:48.300Z,18.48
2022-11-16T23:37:16.310Z,17.90
2022-11-16T23:39:44.605Z,18.70
2022-11-16T23:42:30.343Z,20.45
2022-11-16T23:44:58.450Z,17.38
2022-11-16T23:47:27.809Z,16.58
2022-11-16T23:49:55.819Z,15.60
2022-11-16T23:52:23.818Z,17.50
2022-11-16T23:54:51.843Z,15.68
2022-11-16T23:57:19.864Z,15.25
2022-11-16T23:59:47.905Z,17.52
